Terminal Aerodrome Forecast
Issued by NWS

Home | Current Version | Previous Version | Graphics & Text | Print | Product List | Glossary On
Versions: 1 2 3 4 5 6 7 8 9 10 11 12 13 14
000
FTUS43 KIWX 271700
TAFSBN
TAF
KSBN 271721Z 2718/2818 09005KT P6SM SCT250
     FM281000 00000KT 3SM BR BKN250
     FM281400 VRB03KT P6SM SCT250=

USA.gov is the U.S. government's official web portal to all federal, state and local government web resources and services.